Terminal Aerodrome Forecast
Issued by NWS

Home | Current Version | Previous Version | Text Only | Print | Product List | Glossary On
Versions: 1 2 3 4 5 6 7 8 9 10 11 12 13 14 15 16 17 18
613
FTUS46 KLOX 081825 AAA
TAFSBP
TAF AMD
KSBP 081825Z 0818/0918 14006KT 4SM -SHRA BR BKN015 OVC025
      TEMPO 0818/0821 2SM RA
     FM082300 20008KT 4SM -RA BR OVC010
     FM090300 VRB03KT P6SM -SHRA SCT015 OVC025
     FM091000 VRB03KT P6SM VCSH SCT010 OVC020
     FM091200 VRB03KT P6SM VCSH OVC015=

USA.gov is the U.S. government's official web portal to all federal, state and local government web resources and services.